sensor_id;sensor_type;location;lat;lon;timestamp;pressure;altitude;pressure_sealevel;temperature;humidity
61906;BME280;47863;55.766;37.672;2023-01-09T00:01:38;101558.78;;;-13.73;75.24
61906;BME280;47863;55.766;37.672;2023-01-09T00:04:04;101558.72;;;-13.78;75.59
61906;BME280;47863;55.766;37.672;2023-01-09T00:06:30;101572.31;;;-13.82;75.82
61906;BME280;47863;55.766;37.672;2023-01-09T00:08:56;101567.13;;;-13.85;75.41
61906;BME280;47863;55.766;37.672;2023-01-09T00:11:22;101548.81;;;-13.98;75.53
61906;BME280;47863;55.766;37.672;2023-01-09T00:13:48;101567.78;;;-13.92;75.84
61906;BME280;47863;55.766;37.672;2023-01-09T00:16:14;101562.53;;;-13.97;75.68
61906;BME280;47863;55.766;37.672;2023-01-09T00:18:40;101543.34;;;-14.11;75.67
61906;BME280;47863;55.766;37.672;2023-01-09T00:21:07;101533.63;;;-14.22;75.95
61906;BME280;47863;55.766;37.672;2023-01-09T00:23:33;101566.78;;;-13.99;76.04
61906;BME280;47863;55.766;37.672;2023-01-09T00:26:17;101579.72;;;-13.98;75.61
61906;BME280;47863;55.766;37.672;2023-01-09T00:28:44;101565.59;;;-14.13;75.67
61906;BME280;47863;55.766;37.672;2023-01-09T00:31:10;101520.97;;;-14.47;75.90
61906;BME280;47863;55.766;37.672;2023-01-09T00:33:55;101573.66;;;-14.34;75.97
61906;BME280;47863;55.766;37.672;2023-01-09T00:36:22;101582.31;;;-14.31;76.11
61906;BME280;47863;55.766;37.672;2023-01-09T00:38:48;101575.47;;;-14.30;76.39
61906;BME280;47863;55.766;37.672;2023-01-09T00:41:15;101586.59;;;-14.31;75.80
61906;BME280;47863;55.766;37.672;2023-01-09T00:43:50;101543.06;;;-14.59;75.51
61906;BME280;47863;55.766;37.672;2023-01-09T00:46:19;101567.13;;;-14.56;75.23
61906;BME280;47863;55.766;37.672;2023-01-09T00:48:47;101554.66;;;-14.73;75.46
61906;BME280;47863;55.766;37.672;2023-01-09T00:51:13;101523.28;;;-14.93;75.86
61906;BME280;47863;55.766;37.672;2023-01-09T00:53:41;101577.13;;;-14.67;75.50
61906;BME280;47863;55.766;37.672;2023-01-09T00:56:10;101574.44;;;-14.72;75.41
61906;BME280;47863;55.766;37.672;2023-01-09T00:58:38;101569.19;;;-14.76;75.75
61906;BME280;47863;55.766;37.672;2023-01-09T01:01:04;101542.25;;;-14.89;75.76
61906;BME280;47863;55.766;37.672;2023-01-09T01:03:29;101513.47;;;-15.08;75.89
61906;BME280;47863;55.766;37.672;2023-01-09T01:05:55;101553.59;;;-14.83;76.29
61906;BME280;47863;55.766;37.672;2023-01-09T01:08:39;101568.38;;;-14.74;75.67
61906;BME280;47863;55.766;37.672;2023-01-09T01:11:07;101540.34;;;-14.96;75.56
61906;BME280;47863;55.766;37.672;2023-01-09T01:13:35;101567.69;;;-15.00;75.57
61906;BME280;47863;55.766;37.672;2023-01-09T01:16:03;101572.34;;;-15.17;75.13
61906;BME280;47863;55.766;37.672;2023-01-09T01:18:29;101525.94;;;-15.52;75.79
61906;BME280;47863;55.766;37.672;2023-01-09T01:20:55;101523.84;;;-15.65;75.36
61906;BME280;47863;55.766;37.672;2023-01-09T01:23:20;101574.16;;;-15.43;76.04
61906;BME280;47863;55.766;37.672;2023-01-09T01:25:46;101587.91;;;-15.41;75.32
61906;BME280;47863;55.766;37.672;2023-01-09T01:28:11;101583.28;;;-15.53;75.92
61906;BME280;47863;55.766;37.672;2023-01-09T01:30:39;101535.88;;;-15.93;75.47
61906;BME280;47863;55.766;37.672;2023-01-09T01:33:05;101550.50;;;-15.90;75.84
61906;BME280;47863;55.766;37.672;2023-01-09T01:35:31;101580.94;;;-15.75;75.64
61906;BME280;47863;55.766;37.672;2023-01-09T01:37:57;101584.84;;;-15.87;75.54
61906;BME280;47863;55.766;37.672;2023-01-09T01:40:22;101585.22;;;-16.02;75.71
61906;BME280;47863;55.766;37.672;2023-01-09T01:42:49;101538.75;;;-16.38;76.02
61906;BME280;47863;55.766;37.672;2023-01-09T01:45:18;101578.28;;;-16.31;75.76
61906;BME280;47863;55.766;37.672;2023-01-09T01:47:49;101484.47;;;-17.03;75.65
61906;BME280;47863;55.766;37.672;2023-01-09T01:50:32;101599.94;;;-16.49;75.67
61906;BME280;47863;55.766;37.672;2023-01-09T01:55:33;101560.91;;;-16.91;76.01
61906;BME280;47863;55.766;37.672;2023-01-09T01:58:01;101609.81;;;-16.85;75.76
61906;BME280;47863;55.766;37.672;2023-01-09T02:00:32;101605.91;;;-17.00;75.87
61906;BME280;47863;55.766;37.672;2023-01-09T02:03:00;101608.94;;;-17.10;75.76
61906;BME280;47863;55.766;37.672;2023-01-09T02:05:26;101614.66;;;-17.17;75.82
61906;BME280;47863;55.766;37.672;2023-01-09T02:07:52;101618.72;;;-17.22;76.19
61906;BME280;47863;55.766;37.672;2023-01-09T02:10:18;101577.41;;;-17.54;76.17
61906;BME280;47863;55.766;37.672;2023-01-09T02:12:48;101617.44;;;-17.33;76.45
61906;BME280;47863;55.766;37.672;2023-01-09T02:15:14;101618.44;;;-17.30;76.51
61906;BME280;47863;55.766;37.672;2023-01-09T02:34:59;101620.38;;;-17.24;76.21
61906;BME280;47863;55.766;37.672;2023-01-09T02:37:55;101618.63;;;-17.25;75.64
61906;BME280;47863;55.766;37.672;2023-01-09T02:43:24;101621.63;;;-17.13;76.21
61906;BME280;47863;55.766;37.672;2023-01-09T02:45:50;101613.13;;;-17.12;76.22
61906;BME280;47863;55.766;37.672;2023-01-09T02:48:16;101617.44;;;-17.11;75.71
61906;BME280;47863;55.766;37.672;2023-01-09T02:56:43;101621.75;;;-17.10;75.01
61906;BME280;47863;55.766;37.672;2023-01-09T02:59:21;101535.53;;;-17.79;75.18
61906;BME280;47863;55.766;37.672;2023-01-09T03:09:27;101621.63;;;-17.35;75.69
61906;BME280;47863;55.766;37.672;2023-01-09T03:14:32;101596.03;;;-17.58;75.38
61906;BME280;47863;55.766;37.672;2023-01-09T03:17:06;101640.47;;;-17.35;75.65
61906;BME280;47863;55.766;37.672;2023-01-09T03:19:36;101592.31;;;-17.66;75.84
61906;BME280;47863;55.766;37.672;2023-01-09T03:22:02;101640.56;;;-17.32;75.89
61906;BME280;47863;55.766;37.672;2023-01-09T03:24:28;101626.66;;;-17.39;75.95
61906;BME280;47863;55.766;37.672;2023-01-09T03:26:53;101635.81;;;-17.23;75.69
61906;BME280;47863;55.766;37.672;2023-01-09T03:29:20;101613.94;;;-17.35;75.42
61906;BME280;47863;55.766;37.672;2023-01-09T03:31:45;101621.91;;;-17.29;75.55
61906;BME280;47863;55.766;37.672;2023-01-09T03:34:11;101655.03;;;-17.11;75.72
61906;BME280;47863;55.766;37.672;2023-01-09T03:36:37;101615.06;;;-17.29;75.96
61906;BME280;47863;55.766;37.672;2023-01-09T03:39:03;101622.56;;;-17.33;75.84
61906;BME280;47863;55.766;37.672;2023-01-09T03:41:28;101653.88;;;-17.20;75.51
61906;BME280;47863;55.766;37.672;2023-01-09T03:43:54;101583.72;;;-17.68;75.93
61906;BME280;47863;55.766;37.672;2023-01-09T03:46:19;101654.31;;;-17.30;75.88
61906;BME280;47863;55.766;37.672;2023-01-09T03:48:45;101649.31;;;-17.27;76.07
61906;BME280;47863;55.766;37.672;2023-01-09T03:51:11;101663.16;;;-17.22;76.10
61906;BME280;47863;55.766;37.672;2023-01-09T03:53:36;101654.03;;;-17.15;75.91
61906;BME280;47863;55.766;37.672;2023-01-09T03:56:02;101653.47;;;-17.06;75.77
61906;BME280;47863;55.766;37.672;2023-01-09T03:58:27;101625.06;;;-17.12;76.05
61906;BME280;47863;55.766;37.672;2023-01-09T04:01:01;101653.06;;;-16.94;75.75
61906;BME280;47863;55.766;37.672;2023-01-09T04:03:27;101641.66;;;-17.03;75.83
61906;BME280;47863;55.766;37.672;2023-01-09T04:05:53;101623.44;;;-17.10;75.47
61906;BME280;47863;55.766;37.672;2023-01-09T04:08:18;101655.63;;;-16.94;75.87
61906;BME280;47863;55.766;37.672;2023-01-09T04:10:45;101611.97;;;-17.20;75.80
61906;BME280;47863;55.766;37.672;2023-01-09T04:13:11;101582.06;;;-17.44;75.73
61906;BME280;47863;55.766;37.672;2023-01-09T04:15:37;101645.50;;;-17.14;75.05
61906;BME280;47863;55.766;37.672;2023-01-09T04:18:05;101619.91;;;-17.36;75.29
61906;BME280;47863;55.766;37.672;2023-01-09T04:20:34;101606.41;;;-17.55;75.31
61906;BME280;47863;55.766;37.672;2023-01-09T04:23:00;101661.13;;;-17.30;75.02
61906;BME280;47863;55.766;37.672;2023-01-09T04:25:26;101660.88;;;-17.36;75.80
61906;BME280;47863;55.766;37.672;2023-01-09T04:27:52;101587.16;;;-17.90;75.32
61906;BME280;47863;55.766;37.672;2023-01-09T04:30:18;101670.66;;;-17.49;75.86
61906;BME280;47863;55.766;37.672;2023-01-09T04:32:47;101585.69;;;-18.06;75.60
61906;BME280;47863;55.766;37.672;2023-01-09T04:35:15;101679.47;;;-17.63;75.58
61906;BME280;47863;55.766;37.672;2023-01-09T04:37:41;101681.78;;;-17.69;75.81
61906;BME280;47863;55.766;37.672;2023-01-09T04:40:07;101659.84;;;-17.85;75.76
61906;BME280;47863;55.766;37.672;2023-01-09T04:42:39;101585.75;;;-18.26;76.20
61906;BME280;47863;55.766;37.672;2023-01-09T04:45:09;101509.59;;;-18.75;76.36
61906;BME280;47863;55.766;37.672;2023-01-09T04:47:36;101488.97;;;-18.80;76.31
61906;BME280;47863;55.766;37.672;2023-01-09T04:50:02;101697.06;;;-17.50;76.51
61906;BME280;47863;55.766;37.672;2023-01-09T04:52:27;101672.06;;;-17.57;75.74
61906;BME280;47863;55.766;37.672;2023-01-09T04:54:53;101702.50;;;-17.42;75.98
61906;BME280;47863;55.766;37.672;2023-01-09T04:57:19;101693.31;;;-17.37;75.82
61906;BME280;47863;55.766;37.672;2023-01-09T04:59:44;101704.59;;;-17.32;75.91
61906;BME280;47863;55.766;37.672;2023-01-09T05:02:10;101682.31;;;-17.34;76.24
61906;BME280;47863;55.766;37.672;2023-01-09T05:04:36;101694.66;;;-17.24;76.18
61906;BME280;47863;55.766;37.672;2023-01-09T05:07:01;101663.31;;;-17.40;76.12
61906;BME280;47863;55.766;37.672;2023-01-09T05:09:27;101688.91;;;-17.19;75.64
61906;BME280;47863;55.766;37.672;2023-01-09T05:11:52;101694.97;;;-17.16;76.03
61906;BME280;47863;55.766;37.672;2023-01-09T05:14:18;101671.53;;;-17.26;75.92
61906;BME280;47863;55.766;37.672;2023-01-09T05:16:44;101686.28;;;-17.20;76.33
61906;BME280;47863;55.766;37.672;2023-01-09T05:19:09;101645.53;;;-17.36;75.88
61906;BME280;47863;55.766;37.672;2023-01-09T05:21:35;101695.41;;;-17.04;76.09
61906;BME280;47863;55.766;37.672;2023-01-09T05:24:01;101687.50;;;-17.10;75.69
61906;BME280;47863;55.766;37.672;2023-01-09T05:26:26;101683.31;;;-17.08;75.98
61906;BME280;47863;55.766;37.672;2023-01-09T05:28:53;101655.44;;;-17.23;76.08
61906;BME280;47863;55.766;37.672;2023-01-09T05:31:21;101700.72;;;-17.00;75.86
61906;BME280;47863;55.766;37.672;2023-01-09T05:33:46;101708.53;;;-16.96;76.02
61906;BME280;47863;55.766;37.672;2023-01-09T05:36:12;101708.66;;;-16.93;75.63
61906;BME280;47863;55.766;37.672;2023-01-09T05:38:38;101683.94;;;-17.14;76.39
61906;BME280;47863;55.766;37.672;2023-01-09T05:41:03;101721.56;;;-16.90;75.91
61906;BME280;47863;55.766;37.672;2023-01-09T05:43:29;101649.41;;;-17.24;76.27
61906;BME280;47863;55.766;37.672;2023-01-09T05:45:55;101700.13;;;-16.92;76.03
61906;BME280;47863;55.766;37.672;2023-01-09T05:48:20;101711.31;;;-16.90;75.93
61906;BME280;47863;55.766;37.672;2023-01-09T05:50:46;101715.56;;;-16.91;75.53
61906;BME280;47863;55.766;37.672;2023-01-09T05:53:11;101707.72;;;-16.95;75.82
61906;BME280;47863;55.766;37.672;2023-01-09T05:55:37;101719.84;;;-16.91;75.68
61906;BME280;47863;55.766;37.672;2023-01-09T05:58:02;101682.22;;;-17.15;75.38
61906;BME280;47863;55.766;37.672;2023-01-09T06:00:28;101691.81;;;-17.09;76.00
61906;BME280;47863;55.766;37.672;2023-01-09T06:02:54;101706.66;;;-17.01;75.48
61906;BME280;47863;55.766;37.672;2023-01-09T06:05:20;101729.38;;;-16.87;75.31
61906;BME280;47863;55.766;37.672;2023-01-09T06:07:45;101720.75;;;-16.89;76.16
61906;BME280;47863;55.766;37.672;2023-01-09T06:10:13;101697.19;;;-17.03;75.91
61906;BME280;47863;55.766;37.672;2023-01-09T06:12:40;101722.56;;;-16.87;75.68
61906;BME280;47863;55.766;37.672;2023-01-09T06:15:06;101681.66;;;-17.06;75.39
61906;BME280;47863;55.766;37.672;2023-01-09T06:17:32;101741.34;;;-16.64;75.46
61906;BME280;47863;55.766;37.672;2023-01-09T06:19:58;101733.44;;;-16.68;75.27
61906;BME280;47863;55.766;37.672;2023-01-09T06:22:23;101749.13;;;-16.61;75.71
61906;BME280;47863;55.766;37.672;2023-01-09T06:24:49;101749.84;;;-16.65;75.51
61906;BME280;47863;55.766;37.672;2023-01-09T06:27:14;101735.78;;;-16.74;75.25
61906;BME280;47863;55.766;37.672;2023-01-09T06:29:40;101758.44;;;-16.64;74.79
61906;BME280;47863;55.766;37.672;2023-01-09T06:32:05;101766.34;;;-16.81;74.65
61906;BME280;47863;55.766;37.672;2023-01-09T06:34:31;101766.34;;;-16.81;75.27
61906;BME280;47863;55.766;37.672;2023-01-09T06:36:56;101755.81;;;-16.88;74.82
61906;BME280;47863;55.766;37.672;2023-01-09T06:39:22;101760.16;;;-16.87;75.04
61906;BME280;47863;55.766;37.672;2023-01-09T06:41:47;101740.03;;;-16.99;75.15
61906;BME280;47863;55.766;37.672;2023-01-09T06:44:13;101752.38;;;-16.89;75.41
61906;BME280;47863;55.766;37.672;2023-01-09T06:46:39;101761.66;;;-16.68;75.22
61906;BME280;47863;55.766;37.672;2023-01-09T06:49:04;101746.50;;;-16.86;75.23
61906;BME280;47863;55.766;37.672;2023-01-09T06:51:30;101761.56;;;-16.71;75.02
61906;BME280;47863;55.766;37.672;2023-01-09T06:53:56;101737.88;;;-16.88;75.18
61906;BME280;47863;55.766;37.672;2023-01-09T06:56:21;101772.97;;;-16.63;74.44
61906;BME280;47863;55.766;37.672;2023-01-09T06:58:47;101763.72;;;-16.84;74.27
61906;BME280;47863;55.766;37.672;2023-01-09T07:01:12;101774.22;;;-16.76;74.58
61906;BME280;47863;55.766;37.672;2023-01-09T07:03:38;101723.22;;;-17.15;74.90
61906;BME280;47863;55.766;37.672;2023-01-09T07:06:04;101792.88;;;-16.80;74.59
61906;BME280;47863;55.766;37.672;2023-01-09T07:08:30;101795.84;;;-16.69;74.06
61906;BME280;47863;55.766;37.672;2023-01-09T07:10:55;101793.13;;;-16.72;74.37
61906;BME280;47863;55.766;37.672;2023-01-09T07:13:21;101759.91;;;-16.93;73.99
61906;BME280;47863;55.766;37.672;2023-01-09T07:15:46;101791.97;;;-16.81;74.39
61906;BME280;47863;55.766;37.672;2023-01-09T07:18:14;101768.34;;;-16.96;73.97
61906;BME280;47863;55.766;37.672;2023-01-09T07:20:40;101813.72;;;-16.71;74.15
61906;BME280;47863;55.766;37.672;2023-01-09T07:23:09;101807.94;;;-16.65;73.87
61906;BME280;47863;55.766;37.672;2023-01-09T07:25:35;101748.31;;;-17.06;74.33
61906;BME280;47863;55.766;37.672;2023-01-09T07:28:00;101679.22;;;-17.26;73.82
61906;BME280;47863;55.766;37.672;2023-01-09T07:30:26;101750.53;;;-16.69;74.45
61906;BME280;47863;55.766;37.672;2023-01-09T07:32:52;101762.44;;;-16.48;74.00
61906;BME280;47863;55.766;37.672;2023-01-09T07:35:17;101816.38;;;-16.23;74.16
61906;BME280;47863;55.766;37.672;2023-01-09T07:37:43;101777.44;;;-16.35;74.01
61906;BME280;47863;55.766;37.672;2023-01-09T07:40:10;101806.38;;;-16.15;73.80
61906;BME280;47863;55.766;37.672;2023-01-09T07:42:36;101796.78;;;-16.21;74.42
61906;BME280;47863;55.766;37.672;2023-01-09T07:45:02;101811.97;;;-16.03;74.56
61906;BME280;47863;55.766;37.672;2023-01-09T07:47:29;101762.53;;;-16.21;74.31
61906;BME280;47863;55.766;37.672;2023-01-09T07:49:54;101748.88;;;-16.20;74.03
61906;BME280;47863;55.766;37.672;2023-01-09T07:52:20;101769.06;;;-16.05;73.75
61906;BME280;47863;55.766;37.672;2023-01-09T07:54:46;101799.84;;;-15.83;74.01
61906;BME280;47863;55.766;37.672;2023-01-09T07:57:11;101760.63;;;-16.03;74.23
61906;BME280;47863;55.766;37.672;2023-01-09T07:59:37;101821.69;;;-15.68;74.21
61906;BME280;47863;55.766;37.672;2023-01-09T08:02:02;101821.69;;;-15.68;74.28
61906;BME280;47863;55.766;37.672;2023-01-09T08:04:30;101790.28;;;-15.87;73.45
61906;BME280;47863;55.766;37.672;2023-01-09T08:06:55;101817.59;;;-15.63;74.44
61906;BME280;47863;55.766;37.672;2023-01-09T08:09:21;101814.97;;;-15.65;73.57
61906;BME280;47863;55.766;37.672;2023-01-09T08:11:47;101821.94;;;-15.61;74.13
61906;BME280;47863;55.766;37.672;2023-01-09T08:14:12;101820.97;;;-15.64;73.14
61906;BME280;47863;55.766;37.672;2023-01-09T08:16:38;101826.75;;;-15.71;73.52
61906;BME280;47863;55.766;37.672;2023-01-09T08:19:03;101819.81;;;-15.74;73.49
61906;BME280;47863;55.766;37.672;2023-01-09T08:21:29;101813.91;;;-15.71;73.25
61906;BME280;47863;55.766;37.672;2023-01-09T08:23:55;101816.50;;;-15.70;72.56
61906;BME280;47863;55.766;37.672;2023-01-09T08:26:20;101771.81;;;-16.01;72.00
61906;BME280;47863;55.766;37.672;2023-01-09T08:28:46;101817.25;;;-15.74;72.53
61906;BME280;47863;55.766;37.672;2023-01-09T08:31:12;101821.69;;;-15.68;72.58
61906;BME280;47863;55.766;37.672;2023-01-09T08:33:38;101816.56;;;-15.68;71.72
61906;BME280;47863;55.766;37.672;2023-01-09T08:36:04;101809.59;;;-15.72;71.79
61906;BME280;47863;55.766;37.672;2023-01-09T08:38:29;101819.31;;;-15.62;72.16
61906;BME280;47863;55.766;37.672;2023-01-09T08:40:55;101790.56;;;-15.78;71.32
61906;BME280;47863;55.766;37.672;2023-01-09T08:43:20;101753.00;;;-16.01;71.69
61906;BME280;47863;55.766;37.672;2023-01-09T08:46:05;101806.97;;;-15.74;71.81
61906;BME280;47863;55.766;37.672;2023-01-09T08:48:52;101784.50;;;-15.80;71.74
61906;BME280;47863;55.766;37.672;2023-01-09T08:51:18;101815.13;;;-15.60;71.42
61906;BME280;47863;55.766;37.672;2023-01-09T08:53:43;101819.50;;;-15.58;71.41
61906;BME280;47863;55.766;37.672;2023-01-09T08:56:09;101811.16;;;-15.50;72.09
61906;BME280;47863;55.766;37.672;2023-01-09T08:58:34;101824.28;;;-15.43;71.45
61906;BME280;47863;55.766;37.672;2023-01-09T09:01:04;101824.84;;;-15.51;71.81
61906;BME280;47863;55.766;37.672;2023-01-09T09:03:29;101808.84;;;-15.68;71.49
61906;BME280;47863;55.766;37.672;2023-01-09T09:05:55;101814.47;;;-15.80;71.58
61906;BME280;47863;55.766;37.672;2023-01-09T09:08:20;101796.34;;;-15.85;71.76
61906;BME280;47863;55.766;37.672;2023-01-09T09:10:46;101819.81;;;-15.74;70.85
61906;BME280;47863;55.766;37.672;2023-01-09T09:13:11;101784.88;;;-15.94;69.85
61906;BME280;47863;55.766;37.672;2023-01-09T09:15:37;101778.97;;;-15.92;70.15
61906;BME280;47863;55.766;37.672;2023-01-09T09:18:04;101813.81;;;-15.74;70.34
61906;BME280;47863;55.766;37.672;2023-01-09T09:20:33;101805.03;;;-15.81;70.71
61906;BME280;47863;55.766;37.672;2023-01-09T09:22:59;101806.09;;;-15.74;70.43
61906;BME280;47863;55.766;37.672;2023-01-09T09:25:25;101813.44;;;-15.85;69.87
61906;BME280;47863;55.766;37.672;2023-01-09T09:27:51;101794.72;;;-16.07;69.12
61906;BME280;47863;55.766;37.672;2023-01-09T09:30:18;101803.66;;;-16.20;69.31
61906;BME280;47863;55.766;37.672;2023-01-09T09:32:45;101809.66;;;-16.19;70.21
61906;BME280;47863;55.766;37.672;2023-01-09T09:35:11;101779.63;;;-16.46;69.72
61906;BME280;47863;55.766;37.672;2023-01-09T09:37:37;101782.06;;;-16.49;69.83
61906;BME280;47863;55.766;37.672;2023-01-09T09:40:03;101816.53;;;-16.42;71.08
61906;BME280;47863;55.766;37.672;2023-01-09T09:42:51;101788.09;;;-16.48;70.86
61906;BME280;47863;55.766;37.672;2023-01-09T09:48:36;101808.50;;;-16.03;71.16
61906;BME280;47863;55.766;37.672;2023-01-09T09:53:59;101795.09;;;-15.96;71.11
61906;BME280;47863;55.766;37.672;2023-01-09T09:56:27;101771.44;;;-16.11;71.51
61906;BME280;47863;55.766;37.672;2023-01-09T09:59:04;101806.22;;;-15.95;71.40
61906;BME280;47863;55.766;37.672;2023-01-09T10:01:54;101799.28;;;-15.98;71.09
61906;BME280;47863;55.766;37.672;2023-01-09T10:04:23;101808.03;;;-15.93;71.17
61906;BME280;47863;55.766;37.672;2023-01-09T10:06:56;101798.56;;;-15.94;71.01
61906;BME280;47863;55.766;37.672;2023-01-09T10:14:30;101776.25;;;-16.21;70.94
61906;BME280;47863;55.766;37.672;2023-01-09T10:17:05;101803.28;;;-16.06;71.33
61906;BME280;47863;55.766;37.672;2023-01-09T10:19:53;101799.06;;;-16.04;71.23
61906;BME280;47863;55.766;37.672;2023-01-09T10:25:56;101799.84;;;-16.07;72.19
61906;BME280;47863;55.766;37.672;2023-01-09T10:37:28;101787.44;;;-16.19;71.67
61906;BME280;47863;55.766;37.672;2023-01-09T10:42:31;101811.75;;;-15.85;72.55
61906;BME280;47863;55.766;37.672;2023-01-09T10:47:47;101745.94;;;-15.54;71.61
61906;BME280;47863;55.766;37.672;2023-01-09T10:50:27;101772.50;;;-15.01;71.12
61906;BME280;47863;55.766;37.672;2023-01-09T10:52:55;101814.19;;;-14.25;70.14
61906;BME280;47863;55.766;37.672;2023-01-09T10:55:38;101810.81;;;-14.22;69.55
61906;BME280;47863;55.766;37.672;2023-01-09T10:58:12;101787.25;;;-14.36;69.11
61906;BME280;47863;55.766;37.672;2023-01-09T11:00:39;101791.13;;;-13.90;68.45
61906;BME280;47863;55.766;37.672;2023-01-09T11:03:05;101835.44;;;-13.38;68.19
61906;BME280;47863;55.766;37.672;2023-01-09T11:05:30;101818.91;;;-13.10;67.81
61906;BME280;47863;55.766;37.672;2023-01-09T11:08:13;101828.06;;;-12.86;67.07
61906;BME280;47863;55.766;37.672;2023-01-09T11:10:51;101831.81;;;-12.73;66.77
61906;BME280;47863;55.766;37.672;2023-01-09T11:13:20;101826.50;;;-12.80;66.23
61906;BME280;47863;55.766;37.672;2023-01-09T11:16:25;101824.00;;;-13.13;66.26
61906;BME280;47863;55.766;37.672;2023-01-09T11:18:55;101806.88;;;-13.46;67.57
61906;BME280;47863;55.766;37.672;2023-01-09T11:21:39;101822.34;;;-13.09;68.00
61906;BME280;47863;55.766;37.672;2023-01-09T11:26:50;101805.19;;;-12.31;68.21
61906;BME280;47863;55.766;37.672;2023-01-09T11:29:21;101831.81;;;-11.94;66.86
61906;BME280;47863;55.766;37.672;2023-01-09T11:31:54;101832.00;;;-11.82;67.02
61906;BME280;47863;55.766;37.672;2023-01-09T11:34:25;101798.84;;;-12.05;66.52
61906;BME280;47863;55.766;37.672;2023-01-09T11:37:00;101847.53;;;-11.81;66.41
61906;BME280;47863;55.766;37.672;2023-01-09T11:39:28;101842.88;;;-12.00;66.18
61906;BME280;47863;55.766;37.672;2023-01-09T11:41:58;101847.69;;;-12.17;66.52
61906;BME280;47863;55.766;37.672;2023-01-09T11:44:25;101850.69;;;-12.37;66.11
61906;BME280;47863;55.766;37.672;2023-01-09T11:46:52;101808.50;;;-12.77;66.20
61906;BME280;47863;55.766;37.672;2023-01-09T11:49:24;101791.91;;;-13.24;65.13
61906;BME280;47863;55.766;37.672;2023-01-09T11:52:18;101850.19;;;-13.32;66.75
61906;BME280;47863;55.766;37.672;2023-01-09T11:55:09;101823.19;;;-13.79;66.88
61906;BME280;47863;55.766;37.672;2023-01-09T11:57:36;101842.94;;;-13.79;67.48
61906;BME280;47863;55.766;37.672;2023-01-09T12:00:32;101810.59;;;-14.30;67.42
61906;BME280;47863;55.766;37.672;2023-01-09T12:08:43;101803.97;;;-15.35;68.28
61906;BME280;47863;55.766;37.672;2023-01-09T12:20:01;101839.88;;;-15.62;70.23
61906;BME280;47863;55.766;37.672;2023-01-09T12:25:41;101858.25;;;-16.01;70.16
61906;BME280;47863;55.766;37.672;2023-01-09T12:36:48;101843.09;;;-16.40;71.37
61906;BME280;47863;55.766;37.672;2023-01-09T12:52:43;101827.88;;;-17.03;72.41
61906;BME280;47863;55.766;37.672;2023-01-09T12:55:19;101825.47;;;-17.21;72.81
61906;BME280;47863;55.766;37.672;2023-01-09T12:57:49;101842.78;;;-17.15;72.83
61906;BME280;47863;55.766;37.672;2023-01-09T13:00:33;101850.25;;;-17.20;73.36
61906;BME280;47863;55.766;37.672;2023-01-09T13:03:06;101847.75;;;-17.19;74.10
61906;BME280;47863;55.766;37.672;2023-01-09T13:05:46;101850.88;;;-17.26;73.68
61906;BME280;47863;55.766;37.672;2023-01-09T13:10:51;101806.63;;;-17.64;73.74
61906;BME280;47863;55.766;37.672;2023-01-09T13:15:54;101854.69;;;-17.37;74.16
61906;BME280;47863;55.766;37.672;2023-01-09T13:18:41;101866.75;;;-17.34;74.15
61906;BME280;47863;55.766;37.672;2023-01-09T13:21:13;101825.47;;;-17.62;74.43
61906;BME280;47863;55.766;37.672;2023-01-09T13:24:00;101816.00;;;-17.64;73.61
61906;BME280;47863;55.766;37.672;2023-01-09T13:26:56;101837.75;;;-17.54;74.55
61906;BME280;47863;55.766;37.672;2023-01-09T13:29:27;101890.81;;;-17.31;74.43
61906;BME280;47863;55.766;37.672;2023-01-09T13:34:38;101882.44;;;-17.27;74.55
61906;BME280;47863;55.766;37.672;2023-01-09T13:37:04;101882.25;;;-17.31;74.65
61906;BME280;47863;55.766;37.672;2023-01-09T13:39:40;101871.63;;;-17.41;74.53
61906;BME280;47863;55.766;37.672;2023-01-09T13:42:14;101884.75;;;-17.33;74.32
61906;BME280;47863;55.766;37.672;2023-01-09T13:45:10;101879.16;;;-17.44;74.53
61906;BME280;47863;55.766;37.672;2023-01-09T13:47:36;101863.47;;;-17.51;74.40
61906;BME280;47863;55.766;37.672;2023-01-09T13:52:40;101888.03;;;-17.35;75.00
61906;BME280;47863;55.766;37.672;2023-01-09T14:05:14;101895.19;;;-17.28;76.04
61906;BME280;47863;55.766;37.672;2023-01-09T14:07:48;101890.81;;;-17.31;76.02
61906;BME280;47863;55.766;37.672;2023-01-09T14:10:24;101871.03;;;-17.54;76.54
61906;BME280;47863;55.766;37.672;2023-01-09T14:12:53;101892.91;;;-17.42;76.19
61906;BME280;47863;55.766;37.672;2023-01-09T14:15:32;101849.97;;;-17.68;76.65
61906;BME280;47863;55.766;37.672;2023-01-09T14:20:44;101859.25;;;-17.51;76.43
61906;BME280;47863;55.766;37.672;2023-01-09T14:26:04;101894.19;;;-17.32;76.58
61906;BME280;47863;55.766;37.672;2023-01-09T14:28:33;101852.44;;;-17.50;76.37
61906;BME280;47863;55.766;37.672;2023-01-09T14:33:26;101891.13;;;-17.23;76.13
61906;BME280;47863;55.766;37.672;2023-01-09T14:36:11;101900.44;;;-17.25;76.64
61906;BME280;47863;55.766;37.672;2023-01-09T14:38:44;101893.69;;;-17.23;76.42
61906;BME280;47863;55.766;37.672;2023-01-09T14:41:18;101897.06;;;-17.24;76.19
61906;BME280;47863;55.766;37.672;2023-01-09T14:46:52;101851.81;;;-17.45;76.21
61906;BME280;47863;55.766;37.672;2023-01-09T14:51:50;101807.72;;;-17.78;76.26
61906;BME280;47863;55.766;37.672;2023-01-09T14:54:29;101879.41;;;-17.38;75.90
61906;BME280;47863;55.766;37.672;2023-01-09T14:56:57;101812.78;;;-17.80;75.96
61906;BME280;47863;55.766;37.672;2023-01-09T14:59:23;101901.13;;;-17.29;76.19
61906;BME280;47863;55.766;37.672;2023-01-09T15:01:49;101901.00;;;-17.32;75.85
61906;BME280;47863;55.766;37.672;2023-01-09T15:04:36;101874.78;;;-17.46;76.17